Merion, Pennsylvania
Current Conditions -  °F | °C
As of 2:54 AM on Wednesday 22 Oct 2014 (Local Time) from KPHL Reporting Station
Overcast Overcast  
Wind Chill: 57°   Ceiling: 8000
Heat Index: 57°   Visibility: 10mi
Dew Point: 50°   Wind: 15mph
Humidity: 77%   Direction: 360°N
Pressure: 29.85"   Gusts: NA
Location:  40.0023°N, 75.2493°W
Report Text: KPHL 220654Z 36013KT 10SM BKN080 OVC100 14/10 A2985 RMK AO2 SLP106 T01390100 $
Loading
Personal Weather Stations






























Interactive Weather Map
Tropical Storm Tracking
New forecast layout! Learn more

10-Day Weather Forecast

Advertisements
Track Severe Weather on mobile